sensor_id;sensor_type;location;lat;lon;timestamp;P1;durP1;ratioP1;P2;durP2;ratioP2
33912;SDS011;20200;52.084;5.224;2023-02-20T00:01:10;32.9;;;22.6;;
33912;SDS011;20200;52.084;5.224;2023-02-20T00:04:25;38.9;;;25.8;;
33912;SDS011;20200;52.084;5.224;2023-02-20T00:06:01;38.5;;;23.5;;
33912;SDS011;20200;52.084;5.224;2023-02-20T00:07:38;35.6;;;23.6;;
33912;SDS011;20200;52.084;5.224;2023-02-20T00:10:53;33.3;;;21.9;;
33912;SDS011;20200;52.084;5.224;2023-02-20T00:12:29;38.71;;;24.7;;
33912;SDS011;20200;52.084;5.224;2023-02-20T00:14:05;36.31;;;24.9;;
33912;SDS011;20200;52.084;5.224;2023-02-20T00:17:20;36.4;;;23.9;;
33912;SDS011;20200;52.084;5.224;2023-02-20T00:18:56;35.1;;;23.3;;
33912;SDS011;20200;52.084;5.224;2023-02-20T00:20:35;35.31;;;24.0;;
33912;SDS011;20200;52.084;5.224;2023-02-20T00:22:11;37.5;;;23.6;;
33912;SDS011;20200;52.084;5.224;2023-02-20T00:25:24;35.21;;;23.2;;
33912;SDS011;20200;52.084;5.224;2023-02-20T00:27:02;38.4;;;23.8;;
33912;SDS011;20200;52.084;5.224;2023-02-20T00:28:38;36.31;;;22.6;;
33912;SDS011;20200;52.084;5.224;2023-02-20T00:31:57;35.0;;;24.0;;
33912;SDS011;20200;52.084;5.224;2023-02-20T00:33:35;33.9;;;23.0;;
33912;SDS011;20200;52.084;5.224;2023-02-20T00:35:12;38.71;;;23.4;;
33912;SDS011;20200;52.084;5.224;2023-02-20T00:36:49;34.71;;;22.8;;
33912;SDS011;20200;52.084;5.224;2023-02-20T00:40:04;32.6;;;22.6;;
33912;SDS011;20200;52.084;5.224;2023-02-20T00:41:42;36.71;;;23.8;;
33912;SDS011;20200;52.084;5.224;2023-02-20T00:43:19;36.81;;;24.0;;
33912;SDS011;20200;52.084;5.224;2023-02-20T00:46:33;37.1;;;23.4;;
33912;SDS011;20200;52.084;5.224;2023-02-20T00:48:10;35.31;;;23.7;;
33912;SDS011;20200;52.084;5.224;2023-02-20T00:49:47;39.31;;;24.0;;
33912;SDS011;20200;52.084;5.224;2023-02-20T00:51:24;31.8;;;22.6;;
33912;SDS011;20200;52.084;5.224;2023-02-20T00:54:39;41.6;;;24.1;;
33912;SDS011;20200;52.084;5.224;2023-02-20T00:56:15;36.81;;;24.2;;
33912;SDS011;20200;52.084;5.224;2023-02-20T00:57:52;35.0;;;24.6;;
33912;SDS011;20200;52.084;5.224;2023-02-20T01:01:04;38.6;;;25.2;;
33912;SDS011;20200;52.084;5.224;2023-02-20T01:02:42;37.6;;;24.5;;
33912;SDS011;20200;52.084;5.224;2023-02-20T01:04:18;40.4;;;24.5;;
33912;SDS011;20200;52.084;5.224;2023-02-20T01:07:32;34.9;;;24.2;;
33912;SDS011;20200;52.084;5.224;2023-02-20T01:09:09;35.9;;;25.0;;
33912;SDS011;20200;52.084;5.224;2023-02-20T01:10:47;37.31;;;26.0;;
33912;SDS011;20200;52.084;5.224;2023-02-20T01:12:26;37.21;;;23.7;;
33912;SDS011;20200;52.084;5.224;2023-02-20T01:15:39;38.0;;;25.8;;
33912;SDS011;20200;52.084;5.224;2023-02-20T01:17:15;38.21;;;24.2;;
33912;SDS011;20200;52.084;5.224;2023-02-20T01:18:51;40.21;;;25.2;;
33912;SDS011;20200;52.084;5.224;2023-02-20T01:22:07;35.0;;;25.2;;
33912;SDS011;20200;52.084;5.224;2023-02-20T01:23:44;38.4;;;26.0;;
33912;SDS011;20200;52.084;5.224;2023-02-20T01:25:20;40.81;;;27.1;;
33912;SDS011;20200;52.084;5.224;2023-02-20T01:26:57;38.1;;;26.1;;
33912;SDS011;20200;52.084;5.224;2023-02-20T01:30:11;42.1;;;28.4;;
33912;SDS011;20200;52.084;5.224;2023-02-20T01:31:49;45.5;;;28.5;;
33912;SDS011;20200;52.084;5.224;2023-02-20T01:33:27;41.7;;;28.5;;
33912;SDS011;20200;52.084;5.224;2023-02-20T01:36:46;44.6;;;28.4;;
33912;SDS011;20200;52.084;5.224;2023-02-20T01:38:24;42.3;;;26.6;;
33912;SDS011;20200;52.084;5.224;2023-02-20T01:40:01;50.7;;;28.8;;
33912;SDS011;20200;52.084;5.224;2023-02-20T01:41:39;45.5;;;28.2;;
33912;SDS011;20200;52.084;5.224;2023-02-20T01:44:52;45.2;;;27.5;;
33912;SDS011;20200;52.084;5.224;2023-02-20T01:46:46;44.4;;;27.7;;
33912;SDS011;20200;52.084;5.224;2023-02-20T01:48:25;48.5;;;30.6;;
33912;SDS011;20200;52.084;5.224;2023-02-20T01:50:02;43.4;;;29.4;;
33912;SDS011;20200;52.084;5.224;2023-02-20T01:53:26;49.5;;;31.2;;
33912;SDS011;20200;52.084;5.224;2023-02-20T01:55:09;53.8;;;32.4;;
33912;SDS011;20200;52.084;5.224;2023-02-20T01:56:48;55.6;;;32.4;;
33912;SDS011;20200;52.084;5.224;2023-02-20T01:58:28;55.8;;;32.9;;
33912;SDS011;20200;52.084;5.224;2023-02-20T02:01:53;56.0;;;35.9;;
33912;SDS011;20200;52.084;5.224;2023-02-20T02:03:31;64.6;;;37.6;;
33912;SDS011;20200;52.084;5.224;2023-02-20T02:05:10;55.4;;;36.31;;
33912;SDS011;20200;52.084;5.224;2023-02-20T02:06:49;56.5;;;33.21;;
33912;SDS011;20200;52.084;5.224;2023-02-20T02:10:10;59.8;;;34.71;;
33912;SDS011;20200;52.084;5.224;2023-02-20T02:11:49;57.1;;;35.5;;
33912;SDS011;20200;52.084;5.224;2023-02-20T02:13:26;66.91;;;40.6;;
33912;SDS011;20200;52.084;5.224;2023-02-20T02:15:11;63.8;;;40.9;;
33912;SDS011;20200;52.084;5.224;2023-02-20T02:18:47;70.61;;;41.5;;
33912;SDS011;20200;52.084;5.224;2023-02-20T02:21:48;68.91;;;42.5;;
33912;SDS011;20200;52.084;5.224;2023-02-20T02:23:23;71.5;;;44.5;;
33912;SDS011;20200;52.084;5.224;2023-02-20T02:27:14;64.0;;;39.9;;
33912;SDS011;20200;52.084;5.224;2023-02-20T02:30:19;79.11;;;50.9;;
33912;SDS011;20200;52.084;5.224;2023-02-20T02:31:21;79.11;;;50.9;;
33912;SDS011;20200;52.084;5.224;2023-02-20T02:32:19;81.11;;;51.2;;
33912;SDS011;20200;52.084;5.224;2023-02-20T02:33:51;81.11;;;51.2;;
33912;SDS011;20200;52.084;5.224;2023-02-20T02:35:32;81.8;;;52.5;;
33912;SDS011;20200;52.084;5.224;2023-02-20T02:36:48;85.0;;;52.5;;
33912;SDS011;20200;52.084;5.224;2023-02-20T02:38:31;67.6;;;45.2;;
33912;SDS011;20200;52.084;5.224;2023-02-20T02:40:23;89.3;;;57.1;;
33912;SDS011;20200;52.084;5.224;2023-02-20T02:43:53;89.6;;;55.0;;
33912;SDS011;20200;52.084;5.224;2023-02-20T02:45:37;91.2;;;57.1;;
33912;SDS011;20200;52.084;5.224;2023-02-20T02:47:21;86.3;;;52.9;;
33912;SDS011;20200;52.084;5.224;2023-02-20T02:49:05;91.3;;;55.3;;
33912;SDS011;20200;52.084;5.224;2023-02-20T02:50:47;93.5;;;57.7;;
33912;SDS011;20200;52.084;5.224;2023-02-20T02:54:38;98.8;;;61.4;;
33912;SDS011;20200;52.084;5.224;2023-02-20T02:56:31;98.9;;;57.9;;
33912;SDS011;20200;52.084;5.224;2023-02-20T02:58:08;93.8;;;57.2;;
33912;SDS011;20200;52.084;5.224;2023-02-20T02:59:48;94.0;;;57.7;;
33912;SDS011;20200;52.084;5.224;2023-02-20T03:01:30;88.1;;;56.6;;
33912;SDS011;20200;52.084;5.224;2023-02-20T03:03:12;82.9;;;51.2;;
33912;SDS011;20200;52.084;5.224;2023-02-20T03:06:36;97.2;;;60.3;;
33912;SDS011;20200;52.084;5.224;2023-02-20T03:08:22;86.9;;;53.6;;
33912;SDS011;20200;52.084;5.224;2023-02-20T03:10:20;87.4;;;57.1;;
33912;SDS011;20200;52.084;5.224;2023-02-20T03:11:59;96.0;;;60.7;;
33912;SDS011;20200;52.084;5.224;2023-02-20T03:15:59;98.9;;;60.9;;
33912;SDS011;20200;52.084;5.224;2023-02-20T03:17:37;98.0;;;60.2;;
33912;SDS011;20200;52.084;5.224;2023-02-20T03:19:21;90.7;;;58.1;;
33912;SDS011;20200;52.084;5.224;2023-02-20T03:21:10;97.1;;;61.0;;
33912;SDS011;20200;52.084;5.224;2023-02-20T03:22:52;98.2;;;61.0;;
33912;SDS011;20200;52.084;5.224;2023-02-20T03:24:55;94.6;;;57.8;;
33912;SDS011;20200;52.084;5.224;2023-02-20T03:26:35;95.6;;;59.3;;
33912;SDS011;20200;52.084;5.224;2023-02-20T03:28:16;98.1;;;59.3;;
33912;SDS011;20200;52.084;5.224;2023-02-20T03:31:36;91.4;;;56.7;;
33912;SDS011;20200;52.084;5.224;2023-02-20T03:44:24;88.5;;;56.1;;
33912;SDS011;20200;52.084;5.224;2023-02-20T03:46:04;85.6;;;50.3;;
33912;SDS011;20200;52.084;5.224;2023-02-20T03:47:46;89.4;;;53.9;;
33912;SDS011;20200;52.084;5.224;2023-02-20T03:49:28;83.7;;;53.8;;
33912;SDS011;20200;52.084;5.224;2023-02-20T03:52:52;89.2;;;54.0;;
33912;SDS011;20200;52.084;5.224;2023-02-20T03:54:30;81.7;;;49.0;;
33912;SDS011;20200;52.084;5.224;2023-02-20T03:56:11;83.0;;;50.7;;
33912;SDS011;20200;52.084;5.224;2023-02-20T03:57:54;89.2;;;54.1;;
33912;SDS011;20200;52.084;5.224;2023-02-20T03:59:37;89.2;;;54.1;;
33912;SDS011;20200;52.084;5.224;2023-02-20T04:02:59;95.2;;;57.7;;
33912;SDS011;20200;52.084;5.224;2023-02-20T04:04:43;84.0;;;50.4;;
33912;SDS011;20200;52.084;5.224;2023-02-20T04:06:24;95.9;;;57.1;;
33912;SDS011;20200;52.084;5.224;2023-02-20T04:08:07;89.0;;;57.2;;
33912;SDS011;20200;52.084;5.224;2023-02-20T04:11:26;95.8;;;57.5;;
33912;SDS011;20200;52.084;5.224;2023-02-20T04:13:08;84.1;;;52.5;;
33912;SDS011;20200;52.084;5.224;2023-02-20T04:14:49;96.1;;;59.0;;
33912;SDS011;20200;52.084;5.224;2023-02-20T04:16:29;97.1;;;58.6;;
33912;SDS011;20200;52.084;5.224;2023-02-20T04:19:51;91.8;;;59.6;;
33912;SDS011;20200;52.084;5.224;2023-02-20T04:21:32;84.2;;;53.8;;
33912;SDS011;20200;52.084;5.224;2023-02-20T04:23:14;94.2;;;58.2;;
33912;SDS011;20200;52.084;5.224;2023-02-20T04:24:55;105.4;;;61.2;;
33912;SDS011;20200;52.084;5.224;2023-02-20T04:28:13;98.3;;;61.9;;
33912;SDS011;20200;52.084;5.224;2023-02-20T04:29:51;94.8;;;62.6;;
33912;SDS011;20200;52.084;5.224;2023-02-20T04:31:28;87.9;;;56.5;;
33912;SDS011;20200;52.084;5.224;2023-02-20T04:33:05;97.4;;;59.8;;
33912;SDS011;20200;52.084;5.224;2023-02-20T04:36:22;92.0;;;56.5;;
33912;SDS011;20200;52.084;5.224;2023-02-20T04:38:00;95.6;;;57.5;;
33912;SDS011;20200;52.084;5.224;2023-02-20T04:39:36;92.1;;;58.1;;
33912;SDS011;20200;52.084;5.224;2023-02-20T04:42:50;97.1;;;60.1;;
33912;SDS011;20200;52.084;5.224;2023-02-20T04:44:31;97.5;;;61.0;;
33912;SDS011;20200;52.084;5.224;2023-02-20T04:46:09;100.5;;;61.3;;
33912;SDS011;20200;52.084;5.224;2023-02-20T04:47:46;98.4;;;63.7;;
33912;SDS011;20200;52.084;5.224;2023-02-20T04:50:59;88.3;;;54.4;;
33912;SDS011;20200;52.084;5.224;2023-02-20T04:52:37;105.6;;;62.9;;
33912;SDS011;20200;52.084;5.224;2023-02-20T04:54:14;92.5;;;58.9;;
33912;SDS011;20200;52.084;5.224;2023-02-20T04:57:28;100.4;;;58.6;;
33912;SDS011;20200;52.084;5.224;2023-02-20T04:59:04;97.9;;;58.5;;
33912;SDS011;20200;52.084;5.224;2023-02-20T05:00:41;88.7;;;59.2;;
33912;SDS011;20200;52.084;5.224;2023-02-20T05:03:57;93.0;;;59.0;;
33912;SDS011;20200;52.084;5.224;2023-02-20T05:05:34;98.9;;;59.4;;
33912;SDS011;20200;52.084;5.224;2023-02-20T05:07:11;89.6;;;56.8;;
33912;SDS011;20200;52.084;5.224;2023-02-20T05:08:47;90.1;;;56.2;;
33912;SDS011;20200;52.084;5.224;2023-02-20T05:12:03;95.3;;;58.4;;
33912;SDS011;20200;52.084;5.224;2023-02-20T05:13:40;90.4;;;55.7;;
33912;SDS011;20200;52.084;5.224;2023-02-20T05:15:16;88.5;;;52.9;;
33912;SDS011;20200;52.084;5.224;2023-02-20T05:18:31;83.3;;;51.1;;
33912;SDS011;20200;52.084;5.224;2023-02-20T05:20:09;88.7;;;53.7;;
33912;SDS011;20200;52.084;5.224;2023-02-20T05:22:23;88.1;;;52.6;;
33912;SDS011;20200;52.084;5.224;2023-02-20T05:23:59;86.0;;;52.9;;
33912;SDS011;20200;52.084;5.224;2023-02-20T05:25:35;82.9;;;50.6;;
33912;SDS011;20200;52.084;5.224;2023-02-20T05:28:53;82.9;;;50.5;;
33912;SDS011;20200;52.084;5.224;2023-02-20T05:30:29;83.8;;;48.1;;
33912;SDS011;20200;52.084;5.224;2023-02-20T05:32:07;82.3;;;48.3;;
33912;SDS011;20200;52.084;5.224;2023-02-20T05:35:20;81.7;;;47.1;;
33912;SDS011;20200;52.084;5.224;2023-02-20T05:36:57;72.91;;;42.5;;
33912;SDS011;20200;52.084;5.224;2023-02-20T05:38:34;71.7;;;43.1;;
33912;SDS011;20200;52.084;5.224;2023-02-20T05:40:11;77.7;;;45.3;;
33912;SDS011;20200;52.084;5.224;2023-02-20T05:43:24;72.5;;;43.0;;
33912;SDS011;20200;52.084;5.224;2023-02-20T05:45:01;69.11;;;39.0;;
33912;SDS011;20200;52.084;5.224;2023-02-20T05:46:40;70.7;;;37.31;;
33912;SDS011;20200;52.084;5.224;2023-02-20T05:49:54;61.0;;;38.1;;
33912;SDS011;20200;52.084;5.224;2023-02-20T05:51:31;62.1;;;35.9;;
33912;SDS011;20200;52.084;5.224;2023-02-20T05:53:08;64.2;;;34.31;;
33912;SDS011;20200;52.084;5.224;2023-02-20T05:54:44;61.7;;;34.6;;
33912;SDS011;20200;52.084;5.224;2023-02-20T05:57:58;69.3;;;35.0;;
33912;SDS011;20200;52.084;5.224;2023-02-20T05:59:35;65.0;;;33.21;;
33912;SDS011;20200;52.084;5.224;2023-02-20T06:01:16;55.3;;;28.7;;
33912;SDS011;20200;52.084;5.224;2023-02-20T06:04:29;64.1;;;31.6;;
33912;SDS011;20200;52.084;5.224;2023-02-20T06:06:06;67.0;;;30.4;;
33912;SDS011;20200;52.084;5.224;2023-02-20T06:07:42;60.4;;;29.3;;
33912;SDS011;20200;52.084;5.224;2023-02-20T06:09:19;53.8;;;30.5;;
33912;SDS011;20200;52.084;5.224;2023-02-20T06:12:33;54.5;;;28.7;;
33912;SDS011;20200;52.084;5.224;2023-02-20T06:14:10;55.2;;;29.8;;
33912;SDS011;20200;52.084;5.224;2023-02-20T06:15:46;51.7;;;29.7;;
33912;SDS011;20200;52.084;5.224;2023-02-20T06:19:00;64.3;;;29.1;;
33912;SDS011;20200;52.084;5.224;2023-02-20T06:20:37;53.3;;;27.8;;
33912;SDS011;20200;52.084;5.224;2023-02-20T06:22:14;56.5;;;27.2;;
33912;SDS011;20200;52.084;5.224;2023-02-20T06:25:29;59.3;;;27.8;;
33912;SDS011;20200;52.084;5.224;2023-02-20T06:27:07;60.0;;;27.8;;
33912;SDS011;20200;52.084;5.224;2023-02-20T06:28:43;53.7;;;28.3;;
33912;SDS011;20200;52.084;5.224;2023-02-20T06:30:20;58.6;;;28.6;;
33912;SDS011;20200;52.084;5.224;2023-02-20T06:33:33;56.0;;;28.9;;
33912;SDS011;20200;52.084;5.224;2023-02-20T06:35:11;61.0;;;28.7;;
33912;SDS011;20200;52.084;5.224;2023-02-20T06:36:49;55.8;;;27.5;;
33912;SDS011;20200;52.084;5.224;2023-02-20T06:40:03;59.3;;;28.8;;
33912;SDS011;20200;52.084;5.224;2023-02-20T06:41:41;59.0;;;28.8;;
33912;SDS011;20200;52.084;5.224;2023-02-20T06:43:19;58.4;;;28.9;;
33912;SDS011;20200;52.084;5.224;2023-02-20T06:44:56;54.4;;;26.7;;
33912;SDS011;20200;52.084;5.224;2023-02-20T06:48:09;53.4;;;26.6;;
33912;SDS011;20200;52.084;5.224;2023-02-20T06:49:48;57.7;;;26.6;;
33912;SDS011;20200;52.084;5.224;2023-02-20T06:51:24;54.8;;;25.4;;
33912;SDS011;20200;52.084;5.224;2023-02-20T06:54:40;50.8;;;24.2;;
33912;SDS011;20200;52.084;5.224;2023-02-20T06:56:20;51.7;;;25.6;;
33912;SDS011;20200;52.084;5.224;2023-02-20T06:57:59;55.6;;;24.3;;
33912;SDS011;20200;52.084;5.224;2023-02-20T06:59:40;54.9;;;24.9;;
33912;SDS011;20200;52.084;5.224;2023-02-20T07:02:59;49.6;;;22.8;;
33912;SDS011;20200;52.084;5.224;2023-02-20T07:04:36;51.1;;;23.5;;
33912;SDS011;20200;52.084;5.224;2023-02-20T07:06:13;54.3;;;23.1;;
33912;SDS011;20200;52.084;5.224;2023-02-20T07:09:27;57.6;;;21.5;;
33912;SDS011;20200;52.084;5.224;2023-02-20T07:11:05;48.7;;;19.61;;
33912;SDS011;20200;52.084;5.224;2023-02-20T07:12:42;49.2;;;20.5;;
33912;SDS011;20200;52.084;5.224;2023-02-20T07:14:18;51.3;;;20.7;;
33912;SDS011;20200;52.084;5.224;2023-02-20T07:17:32;52.4;;;22.4;;
33912;SDS011;20200;52.084;5.224;2023-02-20T07:19:10;50.4;;;21.4;;
33912;SDS011;20200;52.084;5.224;2023-02-20T07:20:47;53.7;;;21.9;;
33912;SDS011;20200;52.084;5.224;2023-02-20T07:24:04;57.6;;;23.5;;
33912;SDS011;20200;52.084;5.224;2023-02-20T07:25:42;52.2;;;22.6;;
33912;SDS011;20200;52.084;5.224;2023-02-20T07:27:19;58.4;;;23.1;;
33912;SDS011;20200;52.084;5.224;2023-02-20T07:28:57;53.3;;;23.0;;
33912;SDS011;20200;52.084;5.224;2023-02-20T07:32:11;53.3;;;22.7;;
33912;SDS011;20200;52.084;5.224;2023-02-20T07:33:48;49.0;;;20.3;;
33912;SDS011;20200;52.084;5.224;2023-02-20T07:35:26;58.2;;;22.9;;
33912;SDS011;20200;52.084;5.224;2023-02-20T07:38:39;56.0;;;23.6;;
33912;SDS011;20200;52.084;5.224;2023-02-20T07:40:16;57.7;;;23.4;;
33912;SDS011;20200;52.084;5.224;2023-02-20T07:41:54;47.2;;;21.8;;
33912;SDS011;20200;52.084;5.224;2023-02-20T07:43:31;55.6;;;23.7;;
33912;SDS011;20200;52.084;5.224;2023-02-20T07:46:46;53.5;;;23.3;;
33912;SDS011;20200;52.084;5.224;2023-02-20T07:48:22;55.0;;;23.5;;
33912;SDS011;20200;52.084;5.224;2023-02-20T07:49:59;55.7;;;23.3;;
33912;SDS011;20200;52.084;5.224;2023-02-20T07:53:12;55.8;;;22.7;;
33912;SDS011;20200;52.084;5.224;2023-02-20T07:54:51;51.0;;;21.7;;
33912;SDS011;20200;52.084;5.224;2023-02-20T07:56:27;54.3;;;22.0;;
33912;SDS011;20200;52.084;5.224;2023-02-20T07:59:41;43.5;;;21.0;;
33912;SDS011;20200;52.084;5.224;2023-02-20T08:01:17;56.4;;;22.4;;
33912;SDS011;20200;52.084;5.224;2023-02-20T08:02:54;51.9;;;23.3;;
33912;SDS011;20200;52.084;5.224;2023-02-20T08:04:31;51.8;;;20.41;;
33912;SDS011;20200;52.084;5.224;2023-02-20T08:07:43;49.6;;;20.7;;
33912;SDS011;20200;52.084;5.224;2023-02-20T08:09:20;52.2;;;21.1;;
33912;SDS011;20200;52.084;5.224;2023-02-20T08:10:56;50.7;;;21.3;;
33912;SDS011;20200;52.084;5.224;2023-02-20T08:14:10;56.1;;;22.0;;
33912;SDS011;20200;52.084;5.224;2023-02-20T08:15:49;51.7;;;21.9;;
33912;SDS011;20200;52.084;5.224;2023-02-20T08:17:25;53.1;;;21.9;;
33912;SDS011;20200;52.084;5.224;2023-02-20T08:19:01;54.2;;;21.8;;
33912;SDS011;20200;52.084;5.224;2023-02-20T08:22:14;51.4;;;23.0;;
33912;SDS011;20200;52.084;5.224;2023-02-20T08:23:51;50.2;;;19.91;;
33912;SDS011;20200;52.084;5.224;2023-02-20T08:25:27;52.1;;;21.3;;
33912;SDS011;20200;52.084;5.224;2023-02-20T08:28:40;53.6;;;22.1;;
33912;SDS011;20200;52.084;5.224;2023-02-20T08:30:18;52.5;;;21.8;;
33912;SDS011;20200;52.084;5.224;2023-02-20T08:31:58;52.6;;;21.8;;
33912;SDS011;20200;52.084;5.224;2023-02-20T08:35:10;52.5;;;21.7;;
33912;SDS011;20200;52.084;5.224;2023-02-20T08:36:47;53.7;;;21.5;;
33912;SDS011;20200;52.084;5.224;2023-02-20T08:38:24;51.4;;;22.0;;
33912;SDS011;20200;52.084;5.224;2023-02-20T08:40:06;51.0;;;22.2;;
33912;SDS011;20200;52.084;5.224;2023-02-20T08:43:22;50.3;;;24.2;;
33912;SDS011;20200;52.084;5.224;2023-02-20T08:44:59;51.0;;;24.7;;
33912;SDS011;20200;52.084;5.224;2023-02-20T08:46:35;51.3;;;24.0;;
33912;SDS011;20200;52.084;5.224;2023-02-20T08:49:48;59.2;;;24.2;;
33912;SDS011;20200;52.084;5.224;2023-02-20T08:51:25;52.6;;;25.8;;
33912;SDS011;20200;52.084;5.224;2023-02-20T08:53:01;63.6;;;27.1;;
33912;SDS011;20200;52.084;5.224;2023-02-20T08:54:37;63.6;;;27.1;;
33912;SDS011;20200;52.084;5.224;2023-02-20T08:57:55;54.4;;;24.5;;
33912;SDS011;20200;52.084;5.224;2023-02-20T08:59:31;58.2;;;27.8;;
33912;SDS011;20200;52.084;5.224;2023-02-20T09:01:07;53.8;;;26.4;;
33912;SDS011;20200;52.084;5.224;2023-02-20T09:04:23;49.2;;;26.8;;
33912;SDS011;20200;52.084;5.224;2023-02-20T09:05:59;60.6;;;30.2;;
33912;SDS011;20200;52.084;5.224;2023-02-20T09:07:35;52.6;;;28.0;;
33912;SDS011;20200;52.084;5.224;2023-02-20T09:10:48;61.7;;;29.6;;
33912;SDS011;20200;52.084;5.224;2023-02-20T09:12:24;51.2;;;28.6;;
33912;SDS011;20200;52.084;5.224;2023-02-20T09:14:00;67.3;;;31.2;;
33912;SDS011;20200;52.084;5.224;2023-02-20T09:15:38;60.1;;;33.0;;
33912;SDS011;20200;52.084;5.224;2023-02-20T09:18:54;57.5;;;31.8;;
33912;SDS011;20200;52.084;5.224;2023-02-20T09:20:31;58.4;;;30.9;;
33912;SDS011;20200;52.084;5.224;2023-02-20T09:22:07;67.91;;;32.21;;
33912;SDS011;20200;52.084;5.224;2023-02-20T09:25:20;65.3;;;31.9;;
33912;SDS011;20200;52.084;5.224;2023-02-20T09:26:57;57.1;;;32.3;;
33912;SDS011;20200;52.084;5.224;2023-02-20T09:28:33;58.0;;;33.9;;
33912;SDS011;20200;52.084;5.224;2023-02-20T09:30:10;58.0;;;33.9;;
33912;SDS011;20200;52.084;5.224;2023-02-20T09:33:28;58.3;;;32.8;;
33912;SDS011;20200;52.084;5.224;2023-02-20T09:35:05;54.3;;;32.1;;
33912;SDS011;20200;52.084;5.224;2023-02-20T09:36:41;50.2;;;32.1;;
33912;SDS011;20200;52.084;5.224;2023-02-20T09:39:53;55.8;;;34.31;;
33912;SDS011;20200;52.084;5.224;2023-02-20T09:41:34;55.4;;;33.21;;
33912;SDS011;20200;52.084;5.224;2023-02-20T09:43:22;58.0;;;33.9;;
33912;SDS011;20200;52.084;5.224;2023-02-20T09:45:17;57.6;;;34.31;;
33912;SDS011;20200;52.084;5.224;2023-02-20T09:46:58;57.8;;;33.3;;
33912;SDS011;20200;52.084;5.224;2023-02-20T09:50:44;57.5;;;33.5;;
33912;SDS011;20200;52.084;5.224;2023-02-20T09:52:26;54.3;;;32.6;;
33912;SDS011;20200;52.084;5.224;2023-02-20T09:54:06;52.3;;;33.0;;
33912;SDS011;20200;52.084;5.224;2023-02-20T09:55:46;56.8;;;30.2;;
33912;SDS011;20200;52.084;5.224;2023-02-20T09:57:25;50.3;;;29.4;;
33912;SDS011;20200;52.084;5.224;2023-02-20T10:00:47;45.6;;;27.1;;
33912;SDS011;20200;52.084;5.224;2023-02-20T10:02:26;46.6;;;30.3;;
33912;SDS011;20200;52.084;5.224;2023-02-20T10:04:06;50.9;;;30.1;;
33912;SDS011;20200;52.084;5.224;2023-02-20T10:05:49;48.7;;;29.6;;
33912;SDS011;20200;52.084;5.224;2023-02-20T10:09:08;48.1;;;28.0;;
33912;SDS011;20200;52.084;5.224;2023-02-20T10:10:48;47.7;;;27.7;;
33912;SDS011;20200;52.084;5.224;2023-02-20T10:12:27;43.7;;;25.2;;
33912;SDS011;20200;52.084;5.224;2023-02-20T10:14:22;50.5;;;28.4;;
33912;SDS011;20200;52.084;5.224;2023-02-20T10:18:01;46.5;;;26.5;;
33912;SDS011;20200;52.084;5.224;2023-02-20T10:19:52;44.0;;;25.5;;
33912;SDS011;20200;52.084;5.224;2023-02-20T10:21:41;42.8;;;23.1;;
33912;SDS011;20200;52.084;5.224;2023-02-20T10:23:30;37.1;;;23.0;;
33912;SDS011;20200;52.084;5.224;2023-02-20T10:25:19;37.9;;;21.1;;
33912;SDS011;20200;52.084;5.224;2023-02-20T10:27:03;39.6;;;21.1;;
33912;SDS011;20200;52.084;5.224;2023-02-20T10:28:58;39.71;;;21.5;;
33912;SDS011;20200;52.084;5.224;2023-02-20T10:30:49;41.0;;;20.9;;
33912;SDS011;20200;52.084;5.224;2023-02-20T10:34:19;39.81;;;22.3;;
33912;SDS011;20200;52.084;5.224;2023-02-20T10:36:06;39.1;;;20.6;;
33912;SDS011;20200;52.084;5.224;2023-02-20T10:37:49;33.0;;;20.11;;
33912;SDS011;20200;52.084;5.224;2023-02-20T10:39:29;38.71;;;21.0;;
33912;SDS011;20200;52.084;5.224;2023-02-20T10:42:57;37.4;;;20.8;;
33912;SDS011;20200;52.084;5.224;2023-02-20T10:44:41;34.6;;;19.8;;
33912;SDS011;20200;52.084;5.224;2023-02-20T10:46:26;33.71;;;20.6;;
33912;SDS011;20200;52.084;5.224;2023-02-20T10:48:08;32.4;;;20.7;;
33912;SDS011;20200;52.084;5.224;2023-02-20T10:49:48;32.4;;;20.7;;
33912;SDS011;20200;52.084;5.224;2023-02-20T10:53:17;35.21;;;22.1;;
33912;SDS011;20200;52.084;5.224;2023-02-20T10:55:02;40.71;;;21.8;;
33912;SDS011;20200;52.084;5.224;2023-02-20T10:56:47;35.0;;;21.5;;
33912;SDS011;20200;52.084;5.224;2023-02-20T10:58:34;34.1;;;22.5;;
33912;SDS011;20200;52.084;5.224;2023-02-20T11:00:16;35.5;;;23.1;;
33912;SDS011;20200;52.084;5.224;2023-02-20T11:03:40;36.9;;;23.7;;
33912;SDS011;20200;52.084;5.224;2023-02-20T11:05:23;36.5;;;24.1;;
33912;SDS011;20200;52.084;5.224;2023-02-20T11:07:06;36.5;;;24.5;;
33912;SDS011;20200;52.084;5.224;2023-02-20T11:08:47;38.1;;;24.8;;
33912;SDS011;20200;52.084;5.224;2023-02-20T11:12:00;43.3;;;24.5;;
33912;SDS011;20200;52.084;5.224;2023-02-20T11:13:37;37.0;;;25.3;;
33912;SDS011;20200;52.084;5.224;2023-02-20T11:15:15;39.6;;;22.9;;
33912;SDS011;20200;52.084;5.224;2023-02-20T11:16:55;38.6;;;24.3;;
33912;SDS011;20200;52.084;5.224;2023-02-20T11:20:44;36.5;;;24.7;;
33912;SDS011;20200;52.084;5.224;2023-02-20T11:22:41;35.0;;;23.1;;
33912;SDS011;20200;52.084;5.224;2023-02-20T11:24:20;35.81;;;24.7;;
33912;SDS011;20200;52.084;5.224;2023-02-20T11:26:39;33.21;;;23.7;;
33912;SDS011;20200;52.084;5.224;2023-02-20T11:28:16;32.21;;;23.3;;
33912;SDS011;20200;52.084;5.224;2023-02-20T11:29:58;33.4;;;22.0;;
33912;SDS011;20200;52.084;5.224;2023-02-20T11:31:38;37.4;;;23.3;;
33912;SDS011;20200;52.084;5.224;2023-02-20T11:35:10;31.0;;;21.7;;
33912;SDS011;20200;52.084;5.224;2023-02-20T11:37:09;35.71;;;23.5;;
33912;SDS011;20200;52.084;5.224;2023-02-20T11:38:49;31.7;;;23.1;;
33912;SDS011;20200;52.084;5.224;2023-02-20T11:40:32;37.1;;;23.5;;
33912;SDS011;20200;52.084;5.224;2023-02-20T11:42:10;34.1;;;24.1;;
33912;SDS011;20200;52.084;5.224;2023-02-20T11:46:06;35.21;;;23.3;;
33912;SDS011;20200;52.084;5.224;2023-02-20T11:47:52;37.21;;;24.5;;
33912;SDS011;20200;52.084;5.224;2023-02-20T11:49:42;35.21;;;23.8;;
33912;SDS011;20200;52.084;5.224;2023-02-20T11:51:29;33.0;;;22.8;;
33912;SDS011;20200;52.084;5.224;2023-02-20T11:53:16;35.0;;;22.8;;
33912;SDS011;20200;52.084;5.224;2023-02-20T11:55:07;33.6;;;23.0;;
33912;SDS011;20200;52.084;5.224;2023-02-20T11:56:53;30.0;;;20.0;;
33912;SDS011;20200;52.084;5.224;2023-02-20T12:00:15;31.6;;;20.7;;
33912;SDS011;20200;52.084;5.224;2023-02-20T12:01:54;28.2;;;20.11;;
33912;SDS011;20200;52.084;5.224;2023-02-20T12:03:53;30.4;;;20.11;;
33912;SDS011;20200;52.084;5.224;2023-02-20T12:05:38;30.3;;;20.41;;
33912;SDS011;20200;52.084;5.224;2023-02-20T12:07:24;27.8;;;19.41;;
33912;SDS011;20200;52.084;5.224;2023-02-20T12:10:47;30.9;;;21.0;;
33912;SDS011;20200;52.084;5.224;2023-02-20T12:12:28;29.9;;;21.8;;
33912;SDS011;20200;52.084;5.224;2023-02-20T12:14:09;36.71;;;23.6;;
33912;SDS011;20200;52.084;5.224;2023-02-20T12:15:53;37.81;;;23.3;;
33912;SDS011;20200;52.084;5.224;2023-02-20T12:17:39;28.8;;;21.7;;
33912;SDS011;20200;52.084;5.224;2023-02-20T12:21:23;32.8;;;21.3;;
33912;SDS011;20200;52.084;5.224;2023-02-20T12:23:11;34.4;;;20.9;;
33912;SDS011;20200;52.084;5.224;2023-02-20T12:25:13;33.0;;;20.9;;
33912;SDS011;20200;52.084;5.224;2023-02-20T12:27:00;35.71;;;19.41;;
33912;SDS011;20200;52.084;5.224;2023-02-20T12:28:40;32.5;;;19.5;;
33912;SDS011;20200;52.084;5.224;2023-02-20T12:30:31;32.3;;;21.9;;
33912;SDS011;20200;52.084;5.224;2023-02-20T12:32:27;39.6;;;22.2;;
33912;SDS011;20200;52.084;5.224;2023-02-20T12:36:24;34.71;;;21.5;;
33912;SDS011;20200;52.084;5.224;2023-02-20T12:40:27;34.4;;;21.3;;
33912;SDS011;20200;52.084;5.224;2023-02-20T12:42:20;35.1;;;21.3;;
33912;SDS011;20200;52.084;5.224;2023-02-20T12:44:12;35.21;;;21.0;;
33912;SDS011;20200;52.084;5.224;2023-02-20T12:46:05;41.5;;;21.8;;
33912;SDS011;20200;52.084;5.224;2023-02-20T12:47:50;34.1;;;22.6;;